General Aviation Weather

Text Reports

Enter one or more of the following location identifiers separated by a space:

Zip Code, Four-Character ICAO or Three-Character IATA airport codes.

METAR - Aviation Routine Weather Report
KMAO - Marion, South Carolina
Updated at 1:55 AM GMT on October 26, 2014 (9:55 PM EDT):
METAR KMAO 260155Z AUTO 00000KT 10SM CLR 11/08 A2995 RMK AO2
TAF - Terminal Area Forecast
KMAO - Marion, South Carolina
Updated at 1:55 AM GMT on October 26, 2014 (9:55 PM EDT):
No TAF is currently available for this location.
Decoded:
No decoded TAF is available.
PIREP - Pilot Weather Report
KMAO - Marion, South Carolina
Updated at 1:55 AM GMT on October 26, 2014 (9:55 PM EDT):
No PIREP is currently available for this location.
AIRMET - Airmens Meteorological Information
KMAO - Marion, South Carolina
Updated at 1:55 AM GMT on October 26, 2014 (9:55 PM EDT):
No AIRMET is currently available for this location.
SIGMET - Significant Meteorological Information
KMAO - Marion, South Carolina
Updated at 1:55 AM GMT on October 26, 2014 (9:55 PM EDT):
No SIGMET is currently available for this location.
NOTAM - Notice to Airmen
KMAO - Marion, South Carolina
Updated at 1:55 AM GMT on October 26, 2014 (9:55 PM EDT):
No NOTAM is currently available for this location.
Forecast Area
KMAO - Marion, South Carolina
Updated at 1:55 AM GMT on October 26, 2014 (9:55 PM EDT):
No NOTAM is currently available for this location.
Aviation Weather Maps